sensor_id;sensor_type;location;lat;lon;timestamp;P1;durP1;ratioP1;P2;durP2;ratioP2
64199;SDS011;50516;52.272;5.136;2023-12-14T00:01:33;13.65;;;9.10;;
64199;SDS011;50516;52.272;5.136;2023-12-14T00:03:58;13.13;;;9.48;;
64199;SDS011;50516;52.272;5.136;2023-12-14T00:06:24;13.98;;;9.38;;
64199;SDS011;50516;52.272;5.136;2023-12-14T00:08:49;12.93;;;9.68;;
64199;SDS011;50516;52.272;5.136;2023-12-14T00:11:14;14.48;;;9.80;;
64199;SDS011;50516;52.272;5.136;2023-12-14T00:13:40;11.93;;;9.02;;
64199;SDS011;50516;52.272;5.136;2023-12-14T00:16:05;15.55;;;9.05;;
64199;SDS011;50516;52.272;5.136;2023-12-14T00:18:31;12.45;;;8.18;;
64199;SDS011;50516;52.272;5.136;2023-12-14T00:20:56;12.95;;;8.10;;
64199;SDS011;50516;52.272;5.136;2023-12-14T00:23:22;12.77;;;8.45;;
64199;SDS011;50516;52.272;5.136;2023-12-14T00:25:48;11.15;;;8.20;;
64199;SDS011;50516;52.272;5.136;2023-12-14T00:28:13;14.23;;;8.57;;
64199;SDS011;50516;52.272;5.136;2023-12-14T00:30:39;13.18;;;8.10;;
64199;SDS011;50516;52.272;5.136;2023-12-14T00:33:04;11.23;;;7.72;;
64199;SDS011;50516;52.272;5.136;2023-12-14T00:35:30;10.88;;;7.97;;
64199;SDS011;50516;52.272;5.136;2023-12-14T00:37:55;11.27;;;8.55;;
64199;SDS011;50516;52.272;5.136;2023-12-14T00:40:20;12.27;;;8.35;;
64199;SDS011;50516;52.272;5.136;2023-12-14T00:42:45;12.63;;;8.73;;
64199;SDS011;50516;52.272;5.136;2023-12-14T00:45:11;13.45;;;8.90;;
64199;SDS011;50516;52.272;5.136;2023-12-14T00:47:37;13.10;;;9.38;;
64199;SDS011;50516;52.272;5.136;2023-12-14T00:50:02;14.13;;;9.57;;
64199;SDS011;50516;52.272;5.136;2023-12-14T00:52:28;12.27;;;8.30;;
64199;SDS011;50516;52.272;5.136;2023-12-14T00:54:53;13.10;;;8.38;;
64199;SDS011;50516;52.272;5.136;2023-12-14T00:57:19;13.38;;;9.52;;
64199;SDS011;50516;52.272;5.136;2023-12-14T00:59:44;12.77;;;8.70;;
64199;SDS011;50516;52.272;5.136;2023-12-14T01:02:09;11.73;;;8.55;;
64199;SDS011;50516;52.272;5.136;2023-12-14T01:04:35;12.95;;;8.93;;
64199;SDS011;50516;52.272;5.136;2023-12-14T01:07:00;14.68;;;9.43;;
64199;SDS011;50516;52.272;5.136;2023-12-14T01:09:25;14.77;;;9.50;;
64199;SDS011;50516;52.272;5.136;2023-12-14T01:11:50;17.27;;;9.35;;
64199;SDS011;50516;52.272;5.136;2023-12-14T01:14:16;14.88;;;10.05;;
64199;SDS011;50516;52.272;5.136;2023-12-14T01:16:41;15.18;;;9.90;;
64199;SDS011;50516;52.272;5.136;2023-12-14T01:19:06;12.07;;;9.18;;
64199;SDS011;50516;52.272;5.136;2023-12-14T01:21:32;16.30;;;10.30;;
64199;SDS011;50516;52.272;5.136;2023-12-14T01:23:58;20.00;;;9.93;;
64199;SDS011;50516;52.272;5.136;2023-12-14T01:26:23;17.20;;;10.15;;
64199;SDS011;50516;52.272;5.136;2023-12-14T01:28:48;18.13;;;10.93;;
64199;SDS011;50516;52.272;5.136;2023-12-14T01:31:13;18.02;;;10.95;;
64199;SDS011;50516;52.272;5.136;2023-12-14T01:33:39;12.98;;;9.35;;
64199;SDS011;50516;52.272;5.136;2023-12-14T01:36:04;15.73;;;10.57;;
64199;SDS011;50516;52.272;5.136;2023-12-14T01:38:30;21.92;;;10.82;;
64199;SDS011;50516;52.272;5.136;2023-12-14T01:40:55;15.85;;;10.20;;
64199;SDS011;50516;52.272;5.136;2023-12-14T01:43:21;18.02;;;10.55;;
64199;SDS011;50516;52.272;5.136;2023-12-14T01:45:46;16.90;;;9.93;;
64199;SDS011;50516;52.272;5.136;2023-12-14T01:48:12;17.80;;;10.98;;
64199;SDS011;50516;52.272;5.136;2023-12-14T01:50:37;18.98;;;10.50;;
64199;SDS011;50516;52.272;5.136;2023-12-14T01:53:02;13.80;;;10.02;;
64199;SDS011;50516;52.272;5.136;2023-12-14T01:55:28;16.75;;;10.32;;
64199;SDS011;50516;52.272;5.136;2023-12-14T01:57:53;18.00;;;10.05;;
64199;SDS011;50516;52.272;5.136;2023-12-14T02:00:22;16.10;;;9.07;;
64199;SDS011;50516;52.272;5.136;2023-12-14T02:02:55;15.35;;;10.07;;
64199;SDS011;50516;52.272;5.136;2023-12-14T02:05:20;15.10;;;9.90;;
64199;SDS011;50516;52.272;5.136;2023-12-14T02:07:46;22.00;;;11.00;;
64199;SDS011;50516;52.272;5.136;2023-12-14T02:10:12;18.13;;;10.35;;
64199;SDS011;50516;52.272;5.136;2023-12-14T02:12:37;16.70;;;9.55;;
64199;SDS011;50516;52.272;5.136;2023-12-14T02:15:02;16.08;;;10.27;;
64199;SDS011;50516;52.272;5.136;2023-12-14T02:17:28;18.30;;;10.80;;
64199;SDS011;50516;52.272;5.136;2023-12-14T02:19:53;14.20;;;10.63;;
64199;SDS011;50516;52.272;5.136;2023-12-14T02:22:18;19.33;;;9.98;;
64199;SDS011;50516;52.272;5.136;2023-12-14T02:24:44;17.75;;;10.05;;
64199;SDS011;50516;52.272;5.136;2023-12-14T02:27:09;13.75;;;9.55;;
64199;SDS011;50516;52.272;5.136;2023-12-14T02:29:34;19.23;;;10.20;;
64199;SDS011;50516;52.272;5.136;2023-12-14T02:32:00;16.70;;;9.68;;
64199;SDS011;50516;52.272;5.136;2023-12-14T02:34:25;15.13;;;9.98;;
64199;SDS011;50516;52.272;5.136;2023-12-14T02:36:50;14.13;;;8.45;;
64199;SDS011;50516;52.272;5.136;2023-12-14T02:39:15;17.52;;;9.65;;
64199;SDS011;50516;52.272;5.136;2023-12-14T02:41:41;17.27;;;9.93;;
64199;SDS011;50516;52.272;5.136;2023-12-14T02:44:06;20.13;;;9.80;;
64199;SDS011;50516;52.272;5.136;2023-12-14T02:46:31;13.30;;;9.35;;
64199;SDS011;50516;52.272;5.136;2023-12-14T02:48:57;14.82;;;8.98;;
64199;SDS011;50516;52.272;5.136;2023-12-14T02:51:22;15.48;;;8.52;;
64199;SDS011;50516;52.272;5.136;2023-12-14T02:53:47;17.23;;;8.73;;
64199;SDS011;50516;52.272;5.136;2023-12-14T02:56:12;14.23;;;9.10;;
64199;SDS011;50516;52.272;5.136;2023-12-14T02:58:38;16.05;;;8.35;;
64199;SDS011;50516;52.272;5.136;2023-12-14T03:01:03;15.10;;;7.90;;
64199;SDS011;50516;52.272;5.136;2023-12-14T03:03:29;15.23;;;8.27;;
64199;SDS011;50516;52.272;5.136;2023-12-14T03:05:54;16.67;;;8.23;;
64199;SDS011;50516;52.272;5.136;2023-12-14T03:08:20;14.68;;;7.30;;
64199;SDS011;50516;52.272;5.136;2023-12-14T03:10:45;20.13;;;8.65;;
64199;SDS011;50516;52.272;5.136;2023-12-14T03:13:10;14.93;;;7.45;;
64199;SDS011;50516;52.272;5.136;2023-12-14T03:15:36;15.77;;;9.20;;
64199;SDS011;50516;52.272;5.136;2023-12-14T03:18:01;16.52;;;8.13;;
64199;SDS011;50516;52.272;5.136;2023-12-14T03:20:28;14.18;;;8.02;;
64199;SDS011;50516;52.272;5.136;2023-12-14T03:22:53;19.67;;;7.88;;
64199;SDS011;50516;52.272;5.136;2023-12-14T03:25:19;15.57;;;7.50;;
64199;SDS011;50516;52.272;5.136;2023-12-14T03:27:44;14.35;;;7.53;;
64199;SDS011;50516;52.272;5.136;2023-12-14T03:30:09;13.45;;;7.53;;
64199;SDS011;50516;52.272;5.136;2023-12-14T03:32:35;13.20;;;7.15;;
64199;SDS011;50516;52.272;5.136;2023-12-14T03:35:01;15.60;;;7.15;;
64199;SDS011;50516;52.272;5.136;2023-12-14T03:37:26;11.68;;;6.30;;
64199;SDS011;50516;52.272;5.136;2023-12-14T03:39:51;14.95;;;7.75;;
64199;SDS011;50516;52.272;5.136;2023-12-14T03:42:17;12.23;;;7.07;;
64199;SDS011;50516;52.272;5.136;2023-12-14T03:44:42;13.70;;;7.15;;
64199;SDS011;50516;52.272;5.136;2023-12-14T03:47:07;12.63;;;6.40;;
64199;SDS011;50516;52.272;5.136;2023-12-14T03:49:36;13.10;;;6.65;;
64199;SDS011;50516;52.272;5.136;2023-12-14T03:52:05;10.85;;;6.57;;
64199;SDS011;50516;52.272;5.136;2023-12-14T03:54:30;8.93;;;6.25;;
64199;SDS011;50516;52.272;5.136;2023-12-14T03:56:55;15.88;;;6.53;;
64199;SDS011;50516;52.272;5.136;2023-12-14T03:59:21;13.65;;;6.30;;
64199;SDS011;50516;52.272;5.136;2023-12-14T04:01:46;11.52;;;6.78;;
64199;SDS011;50516;52.272;5.136;2023-12-14T04:04:11;11.38;;;7.40;;
64199;SDS011;50516;52.272;5.136;2023-12-14T04:06:36;11.90;;;6.13;;
64199;SDS011;50516;52.272;5.136;2023-12-14T04:09:02;12.98;;;6.70;;
64199;SDS011;50516;52.272;5.136;2023-12-14T04:11:27;12.35;;;6.47;;
64199;SDS011;50516;52.272;5.136;2023-12-14T04:13:52;13.55;;;6.75;;
64199;SDS011;50516;52.272;5.136;2023-12-14T04:16:21;9.48;;;6.03;;
64199;SDS011;50516;52.272;5.136;2023-12-14T04:18:47;12.73;;;6.38;;
64199;SDS011;50516;52.272;5.136;2023-12-14T04:21:13;13.70;;;7.10;;
64199;SDS011;50516;52.272;5.136;2023-12-14T04:23:38;14.68;;;7.25;;
64199;SDS011;50516;52.272;5.136;2023-12-14T04:26:03;14.35;;;7.30;;
64199;SDS011;50516;52.272;5.136;2023-12-14T04:28:29;11.18;;;7.40;;
64199;SDS011;50516;52.272;5.136;2023-12-14T04:30:54;11.55;;;7.13;;
64199;SDS011;50516;52.272;5.136;2023-12-14T04:33:19;9.63;;;6.25;;
64199;SDS011;50516;52.272;5.136;2023-12-14T04:35:45;11.15;;;6.60;;
64199;SDS011;50516;52.272;5.136;2023-12-14T04:38:10;13.02;;;6.50;;
64199;SDS011;50516;52.272;5.136;2023-12-14T04:40:36;12.63;;;6.88;;
64199;SDS011;50516;52.272;5.136;2023-12-14T04:43:01;17.75;;;8.07;;
64199;SDS011;50516;52.272;5.136;2023-12-14T04:45:27;8.13;;;5.68;;
64199;SDS011;50516;52.272;5.136;2023-12-14T04:47:52;9.57;;;6.45;;
64199;SDS011;50516;52.272;5.136;2023-12-14T04:50:17;9.00;;;5.72;;
64199;SDS011;50516;52.272;5.136;2023-12-14T04:52:43;11.00;;;6.78;;
64199;SDS011;50516;52.272;5.136;2023-12-14T04:55:08;9.85;;;6.38;;
64199;SDS011;50516;52.272;5.136;2023-12-14T04:57:34;11.20;;;6.60;;
64199;SDS011;50516;52.272;5.136;2023-12-14T04:59:59;8.77;;;5.68;;
64199;SDS011;50516;52.272;5.136;2023-12-14T05:02:24;10.85;;;5.05;;
64199;SDS011;50516;52.272;5.136;2023-12-14T05:04:50;9.02;;;5.53;;
64199;SDS011;50516;52.272;5.136;2023-12-14T05:07:15;10.43;;;5.88;;
64199;SDS011;50516;52.272;5.136;2023-12-14T05:09:40;7.90;;;5.43;;
64199;SDS011;50516;52.272;5.136;2023-12-14T05:12:06;15.10;;;6.30;;
64199;SDS011;50516;52.272;5.136;2023-12-14T05:14:31;8.00;;;5.68;;
64199;SDS011;50516;52.272;5.136;2023-12-14T05:16:56;10.30;;;5.80;;
64199;SDS011;50516;52.272;5.136;2023-12-14T05:19:22;8.50;;;5.35;;
64199;SDS011;50516;52.272;5.136;2023-12-14T05:21:47;8.38;;;6.40;;
64199;SDS011;50516;52.272;5.136;2023-12-14T05:24:12;10.27;;;5.50;;
64199;SDS011;50516;52.272;5.136;2023-12-14T05:26:38;11.75;;;6.28;;
64199;SDS011;50516;52.272;5.136;2023-12-14T05:29:03;10.10;;;5.97;;
64199;SDS011;50516;52.272;5.136;2023-12-14T05:31:28;10.75;;;7.03;;
64199;SDS011;50516;52.272;5.136;2023-12-14T05:33:53;12.43;;;7.75;;
64199;SDS011;50516;52.272;5.136;2023-12-14T05:36:19;10.00;;;6.57;;
64199;SDS011;50516;52.272;5.136;2023-12-14T05:38:44;12.40;;;7.47;;
64199;SDS011;50516;52.272;5.136;2023-12-14T05:41:09;10.63;;;7.38;;
64199;SDS011;50516;52.272;5.136;2023-12-14T05:43:35;11.07;;;7.05;;
64199;SDS011;50516;52.272;5.136;2023-12-14T05:46:01;12.23;;;7.68;;
64199;SDS011;50516;52.272;5.136;2023-12-14T05:48:26;11.57;;;7.38;;
64199;SDS011;50516;52.272;5.136;2023-12-14T05:50:53;12.30;;;7.22;;
64199;SDS011;50516;52.272;5.136;2023-12-14T05:53:18;10.65;;;6.93;;
64199;SDS011;50516;52.272;5.136;2023-12-14T05:55:43;13.38;;;7.20;;
64199;SDS011;50516;52.272;5.136;2023-12-14T05:58:09;9.60;;;6.72;;
64199;SDS011;50516;52.272;5.136;2023-12-14T06:00:34;10.95;;;7.18;;
64199;SDS011;50516;52.272;5.136;2023-12-14T06:03:00;11.80;;;7.53;;
64199;SDS011;50516;52.272;5.136;2023-12-14T06:05:26;13.93;;;7.68;;
64199;SDS011;50516;52.272;5.136;2023-12-14T06:07:51;9.05;;;6.50;;
64199;SDS011;50516;52.272;5.136;2023-12-14T06:10:17;12.15;;;7.15;;
64199;SDS011;50516;52.272;5.136;2023-12-14T06:12:43;9.45;;;6.72;;
64199;SDS011;50516;52.272;5.136;2023-12-14T06:15:08;10.73;;;7.00;;
64199;SDS011;50516;52.272;5.136;2023-12-14T06:17:34;10.95;;;7.80;;
64199;SDS011;50516;52.272;5.136;2023-12-14T06:20:02;14.10;;;7.70;;
64199;SDS011;50516;52.272;5.136;2023-12-14T06:22:29;9.20;;;6.10;;
64199;SDS011;50516;52.272;5.136;2023-12-14T06:24:54;8.02;;;6.20;;
64199;SDS011;50516;52.272;5.136;2023-12-14T06:27:20;7.93;;;5.80;;
64199;SDS011;50516;52.272;5.136;2023-12-14T06:29:47;7.97;;;5.82;;
64199;SDS011;50516;52.272;5.136;2023-12-14T06:32:12;10.57;;;5.75;;
64199;SDS011;50516;52.272;5.136;2023-12-14T06:34:38;8.85;;;5.57;;
64199;SDS011;50516;52.272;5.136;2023-12-14T06:37:04;7.40;;;5.68;;
64199;SDS011;50516;52.272;5.136;2023-12-14T06:39:29;10.55;;;5.95;;
64199;SDS011;50516;52.272;5.136;2023-12-14T06:41:54;6.95;;;5.10;;
64199;SDS011;50516;52.272;5.136;2023-12-14T06:44:20;8.60;;;5.60;;
64199;SDS011;50516;52.272;5.136;2023-12-14T06:46:45;8.07;;;5.43;;
64199;SDS011;50516;52.272;5.136;2023-12-14T06:49:10;8.32;;;6.05;;
64199;SDS011;50516;52.272;5.136;2023-12-14T06:51:36;9.75;;;6.30;;
64199;SDS011;50516;52.272;5.136;2023-12-14T06:54:01;13.15;;;7.20;;
64199;SDS011;50516;52.272;5.136;2023-12-14T06:56:27;13.70;;;7.63;;
64199;SDS011;50516;52.272;5.136;2023-12-14T06:58:52;9.25;;;6.13;;
64199;SDS011;50516;52.272;5.136;2023-12-14T07:01:17;8.23;;;6.00;;
64199;SDS011;50516;52.272;5.136;2023-12-14T07:03:43;7.85;;;5.72;;
64199;SDS011;50516;52.272;5.136;2023-12-14T07:06:16;13.80;;;7.45;;
64199;SDS011;50516;52.272;5.136;2023-12-14T07:08:42;9.32;;;6.40;;
64199;SDS011;50516;52.272;5.136;2023-12-14T07:11:08;10.00;;;6.05;;
64199;SDS011;50516;52.272;5.136;2023-12-14T07:13:34;9.38;;;5.53;;
64199;SDS011;50516;52.272;5.136;2023-12-14T07:16:01;7.75;;;5.15;;
64199;SDS011;50516;52.272;5.136;2023-12-14T07:18:30;9.45;;;5.97;;
64199;SDS011;50516;52.272;5.136;2023-12-14T07:20:56;10.13;;;6.38;;
64199;SDS011;50516;52.272;5.136;2023-12-14T07:23:21;11.68;;;5.90;;
64199;SDS011;50516;52.272;5.136;2023-12-14T07:25:46;8.80;;;6.20;;
64199;SDS011;50516;52.272;5.136;2023-12-14T07:28:11;8.95;;;6.22;;
64199;SDS011;50516;52.272;5.136;2023-12-14T07:30:37;10.65;;;7.10;;
64199;SDS011;50516;52.272;5.136;2023-12-14T07:33:02;8.98;;;6.47;;
64199;SDS011;50516;52.272;5.136;2023-12-14T07:35:27;9.73;;;5.25;;
64199;SDS011;50516;52.272;5.136;2023-12-14T07:37:52;9.73;;;6.22;;
64199;SDS011;50516;52.272;5.136;2023-12-14T07:40:18;14.25;;;5.90;;
64199;SDS011;50516;52.272;5.136;2023-12-14T07:42:43;10.55;;;6.05;;
64199;SDS011;50516;52.272;5.136;2023-12-14T07:45:08;8.50;;;5.65;;
64199;SDS011;50516;52.272;5.136;2023-12-14T07:47:34;9.77;;;5.95;;
64199;SDS011;50516;52.272;5.136;2023-12-14T07:50:00;9.18;;;5.60;;
64199;SDS011;50516;52.272;5.136;2023-12-14T07:52:25;8.98;;;5.32;;
64199;SDS011;50516;52.272;5.136;2023-12-14T07:54:50;8.18;;;5.78;;
64199;SDS011;50516;52.272;5.136;2023-12-14T07:57:15;9.90;;;5.53;;
64199;SDS011;50516;52.272;5.136;2023-12-14T07:59:41;7.93;;;5.10;;
64199;SDS011;50516;52.272;5.136;2023-12-14T08:02:06;6.10;;;4.68;;
64199;SDS011;50516;52.272;5.136;2023-12-14T08:04:31;9.23;;;5.53;;
64199;SDS011;50516;52.272;5.136;2023-12-14T08:06:58;9.38;;;5.63;;
64199;SDS011;50516;52.272;5.136;2023-12-14T08:09:23;12.88;;;5.60;;
64199;SDS011;50516;52.272;5.136;2023-12-14T08:11:49;7.47;;;4.40;;
64199;SDS011;50516;52.272;5.136;2023-12-14T08:14:15;8.40;;;4.13;;
64199;SDS011;50516;52.272;5.136;2023-12-14T08:16:40;7.78;;;3.85;;
64199;SDS011;50516;52.272;5.136;2023-12-14T08:19:05;8.75;;;3.92;;
64199;SDS011;50516;52.272;5.136;2023-12-14T08:21:30;8.50;;;4.38;;
64199;SDS011;50516;52.272;5.136;2023-12-14T08:23:56;8.02;;;4.30;;
64199;SDS011;50516;52.272;5.136;2023-12-14T08:26:21;6.28;;;4.32;;
64199;SDS011;50516;52.272;5.136;2023-12-14T08:28:46;5.68;;;3.85;;
64199;SDS011;50516;52.272;5.136;2023-12-14T08:31:12;11.48;;;5.07;;
64199;SDS011;50516;52.272;5.136;2023-12-14T08:33:37;9.52;;;5.47;;
64199;SDS011;50516;52.272;5.136;2023-12-14T08:36:02;8.45;;;4.22;;
64199;SDS011;50516;52.272;5.136;2023-12-14T08:38:30;6.43;;;4.07;;
64199;SDS011;50516;52.272;5.136;2023-12-14T08:40:55;6.85;;;4.45;;
64199;SDS011;50516;52.272;5.136;2023-12-14T08:43:20;9.07;;;4.68;;
64199;SDS011;50516;52.272;5.136;2023-12-14T08:45:45;9.30;;;5.32;;
64199;SDS011;50516;52.272;5.136;2023-12-14T08:48:12;7.60;;;4.85;;
64199;SDS011;50516;52.272;5.136;2023-12-14T08:50:37;6.70;;;4.50;;
64199;SDS011;50516;52.272;5.136;2023-12-14T08:53:03;7.78;;;5.07;;
64199;SDS011;50516;52.272;5.136;2023-12-14T08:55:30;10.23;;;5.10;;
64199;SDS011;50516;52.272;5.136;2023-12-14T08:57:56;5.53;;;3.92;;
64199;SDS011;50516;52.272;5.136;2023-12-14T09:00:22;6.57;;;4.00;;
64199;SDS011;50516;52.272;5.136;2023-12-14T09:02:48;6.28;;;4.10;;
64199;SDS011;50516;52.272;5.136;2023-12-14T09:05:14;7.32;;;5.35;;
64199;SDS011;50516;52.272;5.136;2023-12-14T09:07:41;9.07;;;4.47;;
64199;SDS011;50516;52.272;5.136;2023-12-14T09:10:06;7.88;;;4.70;;
64199;SDS011;50516;52.272;5.136;2023-12-14T09:12:32;9.02;;;5.05;;
64199;SDS011;50516;52.272;5.136;2023-12-14T09:14:58;5.65;;;3.92;;
64199;SDS011;50516;52.272;5.136;2023-12-14T09:17:23;9.88;;;5.38;;
64199;SDS011;50516;52.272;5.136;2023-12-14T09:19:49;7.13;;;4.57;;
64199;SDS011;50516;52.272;5.136;2023-12-14T09:22:14;6.78;;;4.57;;
64199;SDS011;50516;52.272;5.136;2023-12-14T09:24:39;10.18;;;4.68;;
64199;SDS011;50516;52.272;5.136;2023-12-14T09:27:05;8.45;;;4.30;;
64199;SDS011;50516;52.272;5.136;2023-12-14T09:29:30;5.57;;;3.70;;
64199;SDS011;50516;52.272;5.136;2023-12-14T09:31:55;7.22;;;4.18;;
64199;SDS011;50516;52.272;5.136;2023-12-14T09:34:21;7.13;;;4.53;;
64199;SDS011;50516;52.272;5.136;2023-12-14T09:36:46;10.45;;;4.40;;
64199;SDS011;50516;52.272;5.136;2023-12-14T09:39:11;8.00;;;3.97;;
64199;SDS011;50516;52.272;5.136;2023-12-14T09:41:37;10.10;;;5.50;;
64199;SDS011;50516;52.272;5.136;2023-12-14T09:44:03;7.20;;;3.97;;
64199;SDS011;50516;52.272;5.136;2023-12-14T09:46:30;7.50;;;4.38;;
64199;SDS011;50516;52.272;5.136;2023-12-14T09:48:55;11.60;;;4.85;;
64199;SDS011;50516;52.272;5.136;2023-12-14T09:51:22;7.95;;;4.30;;
64199;SDS011;50516;52.272;5.136;2023-12-14T09:53:48;7.18;;;4.60;;
64199;SDS011;50516;52.272;5.136;2023-12-14T09:56:14;9.48;;;4.72;;
64199;SDS011;50516;52.272;5.136;2023-12-14T09:58:39;6.57;;;4.32;;
64199;SDS011;50516;52.272;5.136;2023-12-14T10:01:20;8.73;;;4.45;;
64199;SDS011;50516;52.272;5.136;2023-12-14T10:03:49;9.35;;;4.93;;
64199;SDS011;50516;52.272;5.136;2023-12-14T10:06:15;11.52;;;4.70;;
64199;SDS011;50516;52.272;5.136;2023-12-14T10:08:40;11.02;;;4.40;;
64199;SDS011;50516;52.272;5.136;2023-12-14T10:11:05;11.38;;;4.75;;
64199;SDS011;50516;52.272;5.136;2023-12-14T10:13:40;9.23;;;4.55;;
64199;SDS011;50516;52.272;5.136;2023-12-14T10:16:05;7.22;;;4.57;;
64199;SDS011;50516;52.272;5.136;2023-12-14T10:18:31;10.68;;;4.95;;
64199;SDS011;50516;52.272;5.136;2023-12-14T10:20:59;7.53;;;4.78;;
64199;SDS011;50516;52.272;5.136;2023-12-14T10:23:24;8.35;;;4.65;;
64199;SDS011;50516;52.272;5.136;2023-12-14T10:25:52;8.73;;;4.88;;
64199;SDS011;50516;52.272;5.136;2023-12-14T10:28:17;8.25;;;4.38;;
64199;SDS011;50516;52.272;5.136;2023-12-14T10:30:43;9.13;;;5.80;;
64199;SDS011;50516;52.272;5.136;2023-12-14T10:33:08;7.05;;;4.03;;
64199;SDS011;50516;52.272;5.136;2023-12-14T10:35:34;9.40;;;4.90;;
64199;SDS011;50516;52.272;5.136;2023-12-14T10:38:04;6.20;;;4.00;;
64199;SDS011;50516;52.272;5.136;2023-12-14T10:40:30;7.00;;;4.15;;
64199;SDS011;50516;52.272;5.136;2023-12-14T10:42:58;9.18;;;4.53;;
64199;SDS011;50516;52.272;5.136;2023-12-14T10:45:27;8.32;;;4.05;;
64199;SDS011;50516;52.272;5.136;2023-12-14T10:47:55;8.57;;;4.07;;
64199;SDS011;50516;52.272;5.136;2023-12-14T10:50:23;10.00;;;4.13;;
64199;SDS011;50516;52.272;5.136;2023-12-14T10:52:49;10.45;;;4.57;;
64199;SDS011;50516;52.272;5.136;2023-12-14T10:55:21;6.43;;;4.40;;
64199;SDS011;50516;52.272;5.136;2023-12-14T10:57:51;8.18;;;4.85;;
64199;SDS011;50516;52.272;5.136;2023-12-14T11:00:17;6.80;;;4.03;;
64199;SDS011;50516;52.272;5.136;2023-12-14T11:02:45;12.98;;;5.50;;
64199;SDS011;50516;52.272;5.136;2023-12-14T11:05:11;7.50;;;4.57;;
64199;SDS011;50516;52.272;5.136;2023-12-14T11:07:53;10.85;;;4.20;;
64199;SDS011;50516;52.272;5.136;2023-12-14T11:10:24;10.18;;;4.53;;
64199;SDS011;50516;52.272;5.136;2023-12-14T11:12:54;5.90;;;3.80;;
64199;SDS011;50516;52.272;5.136;2023-12-14T11:15:24;8.93;;;4.35;;
64199;SDS011;50516;52.272;5.136;2023-12-14T11:25:54;8.13;;;4.90;;
64199;SDS011;50516;52.272;5.136;2023-12-14T11:28:22;11.32;;;4.75;;
64199;SDS011;50516;52.272;5.136;2023-12-14T11:30:48;8.50;;;4.82;;
64199;SDS011;50516;52.272;5.136;2023-12-14T11:33:14;7.25;;;4.38;;
64199;SDS011;50516;52.272;5.136;2023-12-14T11:35:40;9.55;;;4.65;;
64199;SDS011;50516;52.272;5.136;2023-12-14T11:38:06;10.63;;;5.28;;
64199;SDS011;50516;52.272;5.136;2023-12-14T11:40:47;10.75;;;5.95;;
64199;SDS011;50516;52.272;5.136;2023-12-14T11:43:14;9.55;;;4.80;;
64199;SDS011;50516;52.272;5.136;2023-12-14T11:45:40;8.45;;;5.03;;
64199;SDS011;50516;52.272;5.136;2023-12-14T11:48:06;9.88;;;4.82;;
64199;SDS011;50516;52.272;5.136;2023-12-14T11:50:33;7.38;;;4.85;;
64199;SDS011;50516;52.272;5.136;2023-12-14T11:53:02;10.18;;;5.25;;
64199;SDS011;50516;52.272;5.136;2023-12-14T11:55:28;10.10;;;5.05;;
64199;SDS011;50516;52.272;5.136;2023-12-14T11:57:55;8.23;;;4.43;;
64199;SDS011;50516;52.272;5.136;2023-12-14T12:00:27;6.35;;;3.88;;
64199;SDS011;50516;52.272;5.136;2023-12-14T12:05:58;6.07;;;4.18;;
64199;SDS011;50516;52.272;5.136;2023-12-14T12:08:23;10.70;;;5.32;;
64199;SDS011;50516;52.272;5.136;2023-12-14T12:10:49;8.38;;;4.65;;
64199;SDS011;50516;52.272;5.136;2023-12-14T12:13:18;10.05;;;6.28;;
64199;SDS011;50516;52.272;5.136;2023-12-14T12:15:45;9.93;;;7.10;;
64199;SDS011;50516;52.272;5.136;2023-12-14T12:18:12;13.50;;;6.25;;
64199;SDS011;50516;52.272;5.136;2023-12-14T12:20:38;15.48;;;7.45;;
64199;SDS011;50516;52.272;5.136;2023-12-14T12:23:04;14.27;;;8.02;;
64199;SDS011;50516;52.272;5.136;2023-12-14T12:25:30;13.30;;;8.75;;
64199;SDS011;50516;52.272;5.136;2023-12-14T12:27:56;15.98;;;9.02;;
64199;SDS011;50516;52.272;5.136;2023-12-14T12:30:23;14.57;;;8.45;;
64199;SDS011;50516;52.272;5.136;2023-12-14T12:32:49;13.38;;;9.32;;
64199;SDS011;50516;52.272;5.136;2023-12-14T12:35:18;17.70;;;8.32;;
64199;SDS011;50516;52.272;5.136;2023-12-14T12:37:44;14.75;;;8.13;;
64199;SDS011;50516;52.272;5.136;2023-12-14T12:40:09;12.13;;;8.35;;
64199;SDS011;50516;52.272;5.136;2023-12-14T12:42:36;16.35;;;9.48;;
64199;SDS011;50516;52.272;5.136;2023-12-14T12:45:02;14.82;;;9.43;;
64199;SDS011;50516;52.272;5.136;2023-12-14T12:47:27;15.65;;;7.97;;
64199;SDS011;50516;52.272;5.136;2023-12-14T12:49:53;14.85;;;8.63;;
64199;SDS011;50516;52.272;5.136;2023-12-14T12:52:18;14.95;;;8.65;;
64199;SDS011;50516;52.272;5.136;2023-12-14T12:54:43;14.50;;;8.45;;
64199;SDS011;50516;52.272;5.136;2023-12-14T12:57:09;12.63;;;7.97;;
64199;SDS011;50516;52.272;5.136;2023-12-14T12:59:34;15.48;;;8.05;;
64199;SDS011;50516;52.272;5.136;2023-12-14T13:01:59;14.40;;;8.20;;
64199;SDS011;50516;52.272;5.136;2023-12-14T13:04:25;12.80;;;7.97;;
64199;SDS011;50516;52.272;5.136;2023-12-14T13:06:51;13.48;;;8.85;;
64199;SDS011;50516;52.272;5.136;2023-12-14T13:09:16;10.82;;;7.82;;
64199;SDS011;50516;52.272;5.136;2023-12-14T13:11:42;12.18;;;7.88;;
64199;SDS011;50516;52.272;5.136;2023-12-14T13:14:08;12.68;;;8.43;;
64199;SDS011;50516;52.272;5.136;2023-12-14T13:16:34;13.60;;;8.80;;
64199;SDS011;50516;52.272;5.136;2023-12-14T13:19:00;13.45;;;8.15;;
64199;SDS011;50516;52.272;5.136;2023-12-14T13:21:26;14.02;;;8.48;;
64199;SDS011;50516;52.272;5.136;2023-12-14T13:23:51;11.77;;;7.55;;
64199;SDS011;50516;52.272;5.136;2023-12-14T13:26:16;14.15;;;8.48;;
64199;SDS011;50516;52.272;5.136;2023-12-14T13:28:42;11.55;;;7.88;;
64199;SDS011;50516;52.272;5.136;2023-12-14T13:31:07;12.93;;;7.97;;
64199;SDS011;50516;52.272;5.136;2023-12-14T13:33:32;13.95;;;8.07;;
64199;SDS011;50516;52.272;5.136;2023-12-14T13:35:58;11.00;;;7.57;;
64199;SDS011;50516;52.272;5.136;2023-12-14T13:38:23;10.13;;;7.55;;
64199;SDS011;50516;52.272;5.136;2023-12-14T13:40:49;12.38;;;8.00;;
64199;SDS011;50516;52.272;5.136;2023-12-14T13:43:14;12.90;;;7.93;;
64199;SDS011;50516;52.272;5.136;2023-12-14T13:45:40;11.65;;;7.95;;
64199;SDS011;50516;52.272;5.136;2023-12-14T13:48:06;11.25;;;7.68;;
64199;SDS011;50516;52.272;5.136;2023-12-14T13:50:32;10.57;;;7.78;;
64199;SDS011;50516;52.272;5.136;2023-12-14T13:52:58;11.52;;;8.10;;
64199;SDS011;50516;52.272;5.136;2023-12-14T13:55:23;12.10;;;8.43;;
64199;SDS011;50516;52.272;5.136;2023-12-14T13:57:48;13.23;;;8.27;;
64199;SDS011;50516;52.272;5.136;2023-12-14T14:00:14;12.68;;;7.13;;
64199;SDS011;50516;52.272;5.136;2023-12-14T14:02:41;15.32;;;8.35;;
64199;SDS011;50516;52.272;5.136;2023-12-14T14:05:06;12.85;;;7.85;;
64199;SDS011;50516;52.272;5.136;2023-12-14T14:07:31;13.90;;;8.57;;
64199;SDS011;50516;52.272;5.136;2023-12-14T14:09:56;11.85;;;7.70;;
64199;SDS011;50516;52.272;5.136;2023-12-14T14:12:22;12.48;;;7.95;;
64199;SDS011;50516;52.272;5.136;2023-12-14T14:14:47;10.15;;;7.13;;
64199;SDS011;50516;52.272;5.136;2023-12-14T14:17:12;12.52;;;7.63;;
64199;SDS011;50516;52.272;5.136;2023-12-14T14:19:38;13.07;;;7.53;;
64199;SDS011;50516;52.272;5.136;2023-12-14T14:22:03;14.77;;;8.00;;
64199;SDS011;50516;52.272;5.136;2023-12-14T14:24:29;13.07;;;7.97;;
64199;SDS011;50516;52.272;5.136;2023-12-14T14:26:54;11.73;;;8.68;;
64199;SDS011;50516;52.272;5.136;2023-12-14T14:29:20;13.35;;;8.88;;
64199;SDS011;50516;52.272;5.136;2023-12-14T14:31:45;11.90;;;7.97;;
64199;SDS011;50516;52.272;5.136;2023-12-14T14:34:10;12.23;;;7.97;;
64199;SDS011;50516;52.272;5.136;2023-12-14T14:36:36;11.15;;;7.22;;
64199;SDS011;50516;52.272;5.136;2023-12-14T14:39:01;11.75;;;7.30;;
64199;SDS011;50516;52.272;5.136;2023-12-14T14:41:29;14.77;;;7.97;;